createdAt,value
2022-09-26T07:30:25.297Z,2.00
2022-09-26T07:33:12.582Z,1.80
2022-09-26T07:35:45.929Z,1.88
2022-09-26T07:38:13.264Z,2.03
2022-09-26T07:40:43.282Z,1.77
2022-09-26T07:43:19.984Z,1.80
2022-09-26T07:46:10.627Z,1.60
2022-09-26T07:48:57.882Z,2.30
2022-09-26T07:51:57.263Z,1.53
2022-09-26T09:22:06.548Z,1.25
2022-09-26T09:24:46.986Z,0.93
2022-09-26T10:21:04.487Z,1.33
2022-09-26T10:23:34.973Z,1.60
2022-09-26T10:26:07.207Z,1.38
2022-09-26T10:28:39.933Z,1.23
2022-09-26T10:31:13.239Z,2.17
2022-09-26T10:34:05.506Z,1.03
2022-09-26T10:36:56.854Z,1.27
2022-09-26T10:39:58.928Z,1.57
2022-09-26T10:42:36.547Z,1.90
2022-09-26T10:45:14.144Z,2.23
2022-09-26T10:48:26.202Z,1.20
2022-09-26T10:51:14.920Z,1.37
2022-09-26T10:53:57.035Z,1.90
2022-09-26T10:56:27.095Z,1.40
2022-09-26T10:59:02.619Z,1.07
2022-09-26T11:01:31.993Z,1.10
2022-09-26T11:04:11.646Z,1.57
2022-09-26T11:07:04.996Z,1.33
2022-09-26T13:29:54.113Z,2.37
2022-09-26T13:32:28.526Z,2.00
2022-09-26T13:35:10.276Z,1.87
2022-09-26T13:38:07.513Z,2.73
2022-09-26T13:40:46.647Z,1.50
2022-09-26T13:43:26.518Z,1.93
2022-09-26T13:46:22.046Z,1.67
2022-09-26T13:49:09.585Z,1.97
2022-09-26T13:51:40.152Z,2.07
2022-09-26T13:54:11.593Z,2.47
2022-09-26T13:56:38.930Z,2.17
2022-09-26T13:59:32.509Z,2.63
2022-09-26T14:02:21.858Z,2.60
2022-09-26T16:47:44.546Z,1.80
2022-09-26T17:37:29.726Z,1.90
2022-09-26T19:31:10.558Z,1.97
2022-09-26T19:33:38.923Z,2.43
2022-09-26T20:15:29.338Z,2.73
2022-09-26T20:17:58.553Z,2.80
2022-09-26T21:43:31.090Z,6.30
2022-09-26T21:45:58.431Z,12.27
2022-09-26T21:48:26.249Z,6.50
2022-09-26T21:50:58.100Z,5.90
2022-09-26T23:29:21.335Z,1.40
2022-09-26T23:31:50.814Z,1.87
2022-09-26T23:36:45.223Z,0.70
